AAL1061 KDCA-KORD
Flight info
| Callsign | AAL1061 |
|---|---|
| Flight time | 1h 43m |
| Altitude | 36000 |
| Route | WYNGS5 RAMAY Q72 HACKS J149 ROD WATSN4 |
| Aircraft | A319/M-SDE3FGHIRWY/LB1 |
Departure
| Time | 2026-05-05 15:41 |
|---|---|
| Airport | Ronald Reagan Washington National Airport (KDCA) |
Arrival
| Time | 2026-05-05 17:24 |
|---|---|
| Airport | Chicago O'Hare International Airport (KORD) |
| Time | Latitude | Longitude | Altitude | Speed | Heading |
|---|---|---|---|---|---|
| 2026-05-05 15:14 | 38.84998 | -77.04040 | 24 ft | 0 kts | 277° |
| 2026-05-05 15:33 | 38.84997 | -77.04029 | 26 ft | 4 kts | 278° |
| 2026-05-05 15:33 | 38.84991 | -77.03996 | 25 ft | 4 kts | 290° |
| 2026-05-05 15:34 | 38.84979 | -77.03967 | 28 ft | 4 kts | 321° |
| 2026-05-05 15:34 | 38.84965 | -77.03958 | 25 ft | 0 kts | 355° |
| 2026-05-05 15:37 | 38.84973 | -77.03959 | 27 ft | 3 kts | 356° |
| 2026-05-05 15:37 | 38.85012 | -77.03962 | 24 ft | 9 kts | 356° |
| 2026-05-05 15:37 | 38.85108 | -77.03970 | 24 ft | 18 kts | 356° |
| 2026-05-05 15:37 | 38.85238 | -77.03987 | 24 ft | 17 kts | 356° |
| 2026-05-05 15:38 | 38.85363 | -77.03996 | 24 ft | 19 kts | 356° |
| 2026-05-05 15:38 | 38.85500 | -77.04015 | 26 ft | 20 kts | 349° |
| 2026-05-05 15:38 | 38.85645 | -77.04043 | 27 ft | 22 kts | 355° |
| 2026-05-05 15:38 | 38.85800 | -77.04059 | 27 ft | 23 kts | 356° |
| 2026-05-05 15:39 | 38.85941 | -77.04014 | 25 ft | 23 kts | 46° |
| 2026-05-05 15:39 | 38.86070 | -77.03928 | 24 ft | 16 kts | 25° |
| 2026-05-05 15:39 | 38.86047 | -77.03864 | 25 ft | 10 kts | 171° |
| 2026-05-05 15:39 | 38.86030 | -77.03862 | 24 ft | 0 kts | 175° |
| 2026-05-05 15:40 | 38.86029 | -77.03861 | 24 ft | 2 kts | 175° |
| 2026-05-05 15:40 | 38.85845 | -77.03844 | 27 ft | 56 kts | 176° |
| 2026-05-05 15:40 | 38.85246 | -77.03785 | 24 ft | 115 kts | 175° |
| 2026-05-05 15:40 | 38.84313 | -77.03687 | 200 ft | 148 kts | 174° |
| 2026-05-05 15:41 | 38.83261 | -77.03607 | 832 ft | 152 kts | 180° |
| 2026-05-05 15:41 | 38.82073 | -77.03587 | 990 ft | 190 kts | 182° |
| 2026-05-05 15:41 | 38.80653 | -77.03578 | 1205 ft | 218 kts | 182° |
| 2026-05-05 15:41 | 38.79070 | -77.03562 | 1752 ft | 241 kts | 182° |
| 2026-05-05 15:42 | 38.77352 | -77.03538 | 2595 ft | 253 kts | 182° |
| 2026-05-05 15:42 | 38.75616 | -77.03895 | 3494 ft | 255 kts | 208° |
| 2026-05-05 15:42 | 38.74354 | -77.05438 | 4457 ft | 256 kts | 244° |
| 2026-05-05 15:42 | 38.73934 | -77.07641 | 5543 ft | 257 kts | 264° |
| 2026-05-05 15:43 | 38.73911 | -77.09156 | 6324 ft | 257 kts | 268° |
| 2026-05-05 15:43 | 38.73988 | -77.11440 | 7368 ft | 257 kts | 269° |
| 2026-05-05 15:43 | 38.74066 | -77.13723 | 8402 ft | 257 kts | 267° |
| 2026-05-05 15:43 | 38.74082 | -77.16012 | 9405 ft | 257 kts | 265° |
| 2026-05-05 15:44 | 38.74037 | -77.18314 | 10268 ft | 264 kts | 263° |
| 2026-05-05 15:44 | 38.73939 | -77.20761 | 10616 ft | 285 kts | 263° |
| 2026-05-05 15:44 | 38.73937 | -77.23338 | 11320 ft | 296 kts | 271° |
| 2026-05-05 15:44 | 38.74385 | -77.25967 | 12036 ft | 309 kts | 284° |
| 2026-05-05 15:45 | 38.75338 | -77.28497 | 12751 ft | 322 kts | 296° |
| 2026-05-05 15:45 | 38.76537 | -77.30983 | 13301 ft | 334 kts | 296° |
| 2026-05-05 15:45 | 38.77774 | -77.33543 | 13935 ft | 341 kts | 297° |
| 2026-05-05 15:45 | 38.79012 | -77.36105 | 14612 ft | 344 kts | 297° |
| 2026-05-05 15:46 | 38.80275 | -77.38726 | 15320 ft | 346 kts | 297° |
| 2026-05-05 15:46 | 38.81542 | -77.41360 | 16029 ft | 348 kts | 297° |
| 2026-05-05 15:46 | 38.82815 | -77.44012 | 16738 ft | 350 kts | 298° |
| 2026-05-05 15:46 | 38.84096 | -77.46681 | 17456 ft | 353 kts | 298° |
| 2026-05-05 15:47 | 38.85385 | -77.49375 | 18185 ft | 355 kts | 298° |
| 2026-05-05 15:47 | 38.86680 | -77.52091 | 18803 ft | 358 kts | 298° |
| 2026-05-05 15:47 | 38.87982 | -77.54830 | 19417 ft | 361 kts | 298° |
| 2026-05-05 15:47 | 38.89297 | -77.57593 | 20009 ft | 364 kts | 299° |
| 2026-05-05 15:48 | 38.90622 | -77.60380 | 20588 ft | 368 kts | 299° |
| 2026-05-05 15:48 | 38.91964 | -77.63198 | 21134 ft | 372 kts | 299° |
| 2026-05-05 15:48 | 38.93233 | -77.66101 | 21705 ft | 373 kts | 292° |
| 2026-05-05 15:48 | 38.94068 | -77.69219 | 22232 ft | 375 kts | 282° |
| 2026-05-05 15:49 | 38.94428 | -77.72549 | 22754 ft | 379 kts | 273° |
| 2026-05-05 15:49 | 38.94539 | -77.75945 | 23275 ft | 382 kts | 273° |
| 2026-05-05 15:49 | 38.94653 | -77.79370 | 23736 ft | 385 kts | 273° |
| 2026-05-05 15:49 | 38.94769 | -77.82817 | 24135 ft | 388 kts | 273° |
| 2026-05-05 15:50 | 38.94889 | -77.86287 | 24571 ft | 390 kts | 273° |
| 2026-05-05 15:50 | 38.95015 | -77.89780 | 25006 ft | 393 kts | 273° |
| 2026-05-05 15:50 | 38.95143 | -77.93295 | 25416 ft | 395 kts | 274° |
| 2026-05-05 15:50 | 38.95266 | -77.96834 | 25821 ft | 398 kts | 273° |
| 2026-05-05 15:51 | 38.95384 | -78.00347 | 26259 ft | 400 kts | 273° |
| 2026-05-05 15:51 | 38.95504 | -78.03971 | 26686 ft | 402 kts | 273° |
| 2026-05-05 15:51 | 38.95621 | -78.07522 | 27114 ft | 404 kts | 273° |
| 2026-05-05 15:51 | 38.95740 | -78.11139 | 27539 ft | 406 kts | 273° |
| 2026-05-05 15:52 | 38.95858 | -78.14768 | 27953 ft | 408 kts | 273° |
| 2026-05-05 15:52 | 38.95975 | -78.18426 | 28360 ft | 410 kts | 273° |
| 2026-05-05 15:52 | 38.96092 | -78.22102 | 28745 ft | 412 kts | 274° |
| 2026-05-05 15:52 | 38.96259 | -78.25795 | 29127 ft | 414 kts | 275° |
| 2026-05-05 15:53 | 38.96489 | -78.29493 | 29507 ft | 416 kts | 276° |
| 2026-05-05 15:53 | 38.96753 | -78.33205 | 29866 ft | 418 kts | 276° |
| 2026-05-05 15:53 | 38.97029 | -78.36941 | 30203 ft | 420 kts | 276° |
| 2026-05-05 15:53 | 38.97293 | -78.40629 | 30536 ft | 421 kts | 276° |
| 2026-05-05 15:54 | 38.97549 | -78.44384 | 30896 ft | 421 kts | 277° |
| 2026-05-05 15:54 | 38.97788 | -78.48108 | 31408 ft | 417 kts | 277° |
| 2026-05-05 15:54 | 38.98016 | -78.51801 | 31966 ft | 412 kts | 277° |
| 2026-05-05 15:54 | 38.98240 | -78.55455 | 32537 ft | 407 kts | 277° |
| 2026-05-05 15:55 | 38.98463 | -78.59058 | 33143 ft | 401 kts | 278° |
| 2026-05-05 15:55 | 38.98682 | -78.62615 | 33740 ft | 396 kts | 278° |
| 2026-05-05 15:55 | 38.98899 | -78.66132 | 34276 ft | 392 kts | 278° |
| 2026-05-05 15:55 | 38.99113 | -78.69580 | 34648 ft | 392 kts | 278° |
| 2026-05-05 15:56 | 38.99329 | -78.73070 | 34997 ft | 392 kts | 278° |
| 2026-05-05 15:56 | 38.99545 | -78.76565 | 35300 ft | 393 kts | 278° |
| 2026-05-05 15:56 | 38.99759 | -78.80067 | 35593 ft | 393 kts | 278° |
| 2026-05-05 15:56 | 38.99972 | -78.83577 | 35874 ft | 395 kts | 278° |
| 2026-05-05 15:57 | 39.00183 | -78.87091 | 35942 ft | 394 kts | 278° |
| 2026-05-05 15:57 | 39.00598 | -78.94091 | 35950 ft | 392 kts | 278° |
| 2026-05-05 15:58 | 39.01011 | -79.01097 | 35954 ft | 392 kts | 278° |
| 2026-05-05 15:58 | 39.01419 | -79.08083 | 35959 ft | 390 kts | 279° |
| 2026-05-05 15:59 | 39.01814 | -79.14946 | 35967 ft | 386 kts | 278° |
| 2026-05-05 15:59 | 39.02227 | -79.21818 | 35964 ft | 385 kts | 279° |
| 2026-05-05 16:00 | 39.02688 | -79.28679 | 35975 ft | 385 kts | 279° |
| 2026-05-05 16:00 | 39.03144 | -79.35535 | 35980 ft | 384 kts | 279° |
| 2026-05-05 16:01 | 39.03587 | -79.42381 | 35981 ft | 384 kts | 279° |
| 2026-05-05 16:01 | 39.04021 | -79.49221 | 35982 ft | 383 kts | 279° |
| 2026-05-05 16:02 | 39.04457 | -79.56059 | 35982 ft | 383 kts | 279° |
| 2026-05-05 16:02 | 39.04885 | -79.62847 | 35983 ft | 383 kts | 279° |
| 2026-05-05 16:03 | 39.05310 | -79.69674 | 35996 ft | 383 kts | 279° |
| 2026-05-05 16:03 | 39.05729 | -79.76515 | 35996 ft | 383 kts | 278° |
| 2026-05-05 16:04 | 39.06140 | -79.83344 | 36003 ft | 383 kts | 279° |
| 2026-05-05 16:04 | 39.06548 | -79.90166 | 36004 ft | 382 kts | 279° |
| 2026-05-05 16:05 | 39.06955 | -79.96972 | 36004 ft | 381 kts | 279° |
| 2026-05-05 16:05 | 39.07352 | -80.03727 | 35989 ft | 381 kts | 278° |
| 2026-05-05 16:06 | 39.07750 | -80.10524 | 35959 ft | 381 kts | 279° |
| 2026-05-05 16:06 | 39.08147 | -80.17317 | 35952 ft | 380 kts | 278° |
| 2026-05-05 16:07 | 39.08531 | -80.24087 | 35968 ft | 378 kts | 278° |
| 2026-05-05 16:07 | 39.08907 | -80.30814 | 35969 ft | 376 kts | 278° |
| 2026-05-05 16:08 | 39.09281 | -80.37518 | 35958 ft | 375 kts | 278° |
| 2026-05-05 16:08 | 39.09645 | -80.44162 | 35953 ft | 374 kts | 278° |
| 2026-05-05 16:09 | 39.10003 | -80.50847 | 35946 ft | 374 kts | 278° |
| 2026-05-05 16:09 | 39.10354 | -80.57525 | 35944 ft | 373 kts | 278° |
| 2026-05-05 16:10 | 39.10694 | -80.64164 | 35947 ft | 371 kts | 278° |
| 2026-05-05 16:10 | 39.11036 | -80.70782 | 35946 ft | 370 kts | 278° |
| 2026-05-05 16:11 | 39.11368 | -80.77348 | 35939 ft | 369 kts | 278° |
| 2026-05-05 16:12 | 39.12033 | -80.90546 | 35931 ft | 368 kts | 278° |
| 2026-05-05 16:13 | 39.12869 | -81.06919 | 35927 ft | 365 kts | 282° |
| 2026-05-05 16:13 | 39.14473 | -81.13023 | 35925 ft | 360 kts | 298° |
| 2026-05-05 16:14 | 39.19179 | -81.24430 | 35917 ft | 360 kts | 297° |
| 2026-05-05 16:15 | 39.23851 | -81.35864 | 35925 ft | 360 kts | 297° |
| 2026-05-05 16:16 | 39.28490 | -81.47242 | 35952 ft | 359 kts | 296° |
| 2026-05-05 16:17 | 39.31967 | -81.55794 | 35937 ft | 358 kts | 296° |
| 2026-05-05 16:18 | 39.35438 | -81.64344 | 35903 ft | 358 kts | 296° |
| 2026-05-05 16:19 | 39.38883 | -81.72883 | 35888 ft | 357 kts | 296° |
| 2026-05-05 16:19 | 39.42319 | -81.81380 | 35882 ft | 357 kts | 296° |
| 2026-05-05 16:20 | 39.46886 | -81.92771 | 35875 ft | 356 kts | 296° |
| 2026-05-05 16:22 | 39.52570 | -82.06979 | 35867 ft | 356 kts | 296° |
| 2026-05-05 16:23 | 39.57121 | -82.18376 | 35885 ft | 355 kts | 295° |
| 2026-05-05 16:23 | 39.60501 | -82.26913 | 35873 ft | 355 kts | 295° |
| 2026-05-05 16:24 | 39.62737 | -82.32572 | 35872 ft | 355 kts | 295° |
| 2026-05-05 16:25 | 39.66117 | -82.41114 | 35881 ft | 355 kts | 295° |
| 2026-05-05 16:25 | 39.69481 | -82.49662 | 35884 ft | 353 kts | 295° |
| 2026-05-05 16:26 | 39.73952 | -82.61029 | 35912 ft | 353 kts | 295° |
| 2026-05-05 16:27 | 39.76166 | -82.66683 | 35911 ft | 353 kts | 295° |
| 2026-05-05 16:27 | 39.78393 | -82.72371 | 35907 ft | 353 kts | 295° |
| 2026-05-05 16:28 | 39.80534 | -82.77864 | 35902 ft | 353 kts | 295° |
| 2026-05-05 16:28 | 39.82749 | -82.83551 | 35925 ft | 352 kts | 294° |
| 2026-05-05 16:29 | 39.84962 | -82.89241 | 35922 ft | 352 kts | 294° |
| 2026-05-05 16:29 | 39.87166 | -82.94926 | 35919 ft | 352 kts | 294° |
| 2026-05-05 16:30 | 39.89363 | -83.00608 | 35914 ft | 351 kts | 294° |
| 2026-05-05 16:30 | 39.91546 | -83.06258 | 35913 ft | 351 kts | 294° |
| 2026-05-05 16:31 | 39.93738 | -83.11947 | 35913 ft | 351 kts | 294° |
| 2026-05-05 16:31 | 39.95927 | -83.17633 | 35920 ft | 350 kts | 293° |
| 2026-05-05 16:32 | 39.98112 | -83.23317 | 35918 ft | 351 kts | 293° |
| 2026-05-05 16:32 | 40.00293 | -83.28996 | 35906 ft | 350 kts | 293° |
| 2026-05-05 16:33 | 40.02446 | -83.34634 | 35885 ft | 348 kts | 293° |
| 2026-05-05 16:33 | 40.04612 | -83.40293 | 35872 ft | 349 kts | 293° |
| 2026-05-05 16:34 | 40.06775 | -83.45958 | 35890 ft | 349 kts | 293° |
| 2026-05-05 16:34 | 40.08936 | -83.51630 | 35876 ft | 349 kts | 292° |
| 2026-05-05 16:35 | 40.11093 | -83.57307 | 35865 ft | 349 kts | 292° |
| 2026-05-05 16:35 | 40.13242 | -83.62984 | 35860 ft | 349 kts | 292° |
| 2026-05-05 16:36 | 40.15391 | -83.68666 | 35862 ft | 349 kts | 292° |
| 2026-05-05 16:36 | 40.17527 | -83.74313 | 35865 ft | 349 kts | 292° |
| 2026-05-05 16:37 | 40.19674 | -83.80006 | 35868 ft | 349 kts | 292° |
| 2026-05-05 16:37 | 40.21818 | -83.85704 | 35871 ft | 349 kts | 292° |
| 2026-05-05 16:38 | 40.23955 | -83.91410 | 35870 ft | 349 kts | 291° |
| 2026-05-05 16:38 | 40.26114 | -83.97180 | 35873 ft | 359 kts | 292° |
| 2026-05-05 16:39 | 40.28343 | -84.03160 | 35873 ft | 370 kts | 292° |
| 2026-05-05 16:39 | 40.31081 | -84.08855 | 35500 ft | 371 kts | 298° |
| 2026-05-05 16:40 | 40.32539 | -84.11670 | 35150 ft | 375 kts | 298° |
| 2026-05-05 16:40 | 40.34012 | -84.14504 | 34841 ft | 378 kts | 297° |
| 2026-05-05 16:40 | 40.35499 | -84.17365 | 34507 ft | 380 kts | 297° |
| 2026-05-05 16:40 | 40.36988 | -84.20239 | 34175 ft | 382 kts | 297° |
| 2026-05-05 16:41 | 40.38482 | -84.23140 | 33836 ft | 384 kts | 297° |
| 2026-05-05 16:41 | 40.39977 | -84.26059 | 33458 ft | 387 kts | 297° |
| 2026-05-05 16:41 | 40.41483 | -84.29006 | 33080 ft | 391 kts | 297° |
| 2026-05-05 16:41 | 40.42985 | -84.31945 | 32709 ft | 395 kts | 297° |
| 2026-05-05 16:42 | 40.44522 | -84.34957 | 32339 ft | 399 kts | 297° |
| 2026-05-05 16:42 | 40.46074 | -84.38002 | 31952 ft | 403 kts | 297° |
| 2026-05-05 16:42 | 40.47642 | -84.41079 | 31592 ft | 407 kts | 297° |
| 2026-05-05 16:42 | 40.49225 | -84.44187 | 31238 ft | 411 kts | 297° |
| 2026-05-05 16:43 | 40.50823 | -84.47327 | 30889 ft | 415 kts | 297° |
| 2026-05-05 16:43 | 40.52440 | -84.50503 | 30548 ft | 419 kts | 297° |
| 2026-05-05 16:43 | 40.54070 | -84.53709 | 30205 ft | 423 kts | 297° |
| 2026-05-05 16:43 | 40.55710 | -84.56942 | 29854 ft | 427 kts | 297° |
| 2026-05-05 16:44 | 40.57364 | -84.60203 | 29460 ft | 430 kts | 298° |
| 2026-05-05 16:44 | 40.59024 | -84.63472 | 29072 ft | 429 kts | 298° |
| 2026-05-05 16:44 | 40.60657 | -84.66688 | 28694 ft | 427 kts | 298° |
| 2026-05-05 16:44 | 40.62304 | -84.69933 | 28313 ft | 426 kts | 298° |
| 2026-05-05 16:45 | 40.63946 | -84.73176 | 27937 ft | 424 kts | 298° |
| 2026-05-05 16:45 | 40.65576 | -84.76404 | 27571 ft | 423 kts | 298° |
| 2026-05-05 16:45 | 40.67202 | -84.79629 | 27206 ft | 421 kts | 298° |
| 2026-05-05 16:45 | 40.68818 | -84.82839 | 26845 ft | 420 kts | 298° |
| 2026-05-05 16:46 | 40.69884 | -84.84963 | 26602 ft | 419 kts | 298° |
| 2026-05-05 16:46 | 40.71489 | -84.88163 | 26248 ft | 417 kts | 298° |
| 2026-05-05 16:46 | 40.73602 | -84.92381 | 25796 ft | 416 kts | 298° |
| 2026-05-05 16:46 | 40.75194 | -84.95561 | 25445 ft | 414 kts | 298° |
| 2026-05-05 16:47 | 40.76267 | -84.97707 | 25214 ft | 413 kts | 298° |
| 2026-05-05 16:47 | 40.77846 | -85.00868 | 24877 ft | 412 kts | 298° |
| 2026-05-05 16:47 | 40.79399 | -85.03977 | 24560 ft | 411 kts | 298° |
| 2026-05-05 16:47 | 40.80971 | -85.07124 | 24259 ft | 408 kts | 298° |
| 2026-05-05 16:48 | 40.82524 | -85.10236 | 23935 ft | 405 kts | 298° |
| 2026-05-05 16:48 | 40.84071 | -85.13337 | 23617 ft | 403 kts | 298° |
| 2026-05-05 16:48 | 40.85610 | -85.16421 | 23266 ft | 401 kts | 298° |
| 2026-05-05 16:48 | 40.87141 | -85.19494 | 22888 ft | 399 kts | 298° |
| 2026-05-05 16:49 | 40.88662 | -85.22553 | 22510 ft | 398 kts | 298° |
| 2026-05-05 16:49 | 40.90179 | -85.25610 | 22143 ft | 396 kts | 298° |
| 2026-05-05 16:49 | 40.91686 | -85.28649 | 21775 ft | 394 kts | 298° |
| 2026-05-05 16:49 | 40.93163 | -85.31633 | 21407 ft | 392 kts | 298° |
| 2026-05-05 16:50 | 40.94655 | -85.34645 | 21047 ft | 391 kts | 298° |
| 2026-05-05 16:50 | 40.96135 | -85.37643 | 20694 ft | 389 kts | 298° |
| 2026-05-05 16:50 | 40.97612 | -85.40633 | 20348 ft | 387 kts | 298° |
| 2026-05-05 16:50 | 40.99087 | -85.43619 | 20001 ft | 386 kts | 298° |
| 2026-05-05 16:51 | 41.00551 | -85.46588 | 19665 ft | 385 kts | 298° |
| 2026-05-05 16:51 | 41.02093 | -85.49483 | 19320 ft | 388 kts | 306° |
| 2026-05-05 16:51 | 41.04183 | -85.51813 | 18988 ft | 399 kts | 321° |
| 2026-05-05 16:51 | 41.06452 | -85.53877 | 18682 ft | 391 kts | 314° |
| 2026-05-05 16:52 | 41.08376 | -85.56352 | 18358 ft | 382 kts | 306° |
| 2026-05-05 16:52 | 41.10055 | -85.59059 | 18026 ft | 378 kts | 302° |
| 2026-05-05 16:52 | 41.11631 | -85.61831 | 17654 ft | 376 kts | 301° |
| 2026-05-05 16:52 | 41.13207 | -85.64584 | 17289 ft | 374 kts | 302° |
| 2026-05-05 16:53 | 41.14802 | -85.67240 | 16884 ft | 370 kts | 303° |
| 2026-05-05 16:53 | 41.16454 | -85.69846 | 16236 ft | 368 kts | 304° |
| 2026-05-05 16:53 | 41.18131 | -85.72388 | 15610 ft | 363 kts | 305° |
| 2026-05-05 16:53 | 41.19800 | -85.74875 | 15002 ft | 358 kts | 306° |
| 2026-05-05 16:54 | 41.21449 | -85.77327 | 14402 ft | 353 kts | 306° |
| 2026-05-05 16:54 | 41.23072 | -85.79745 | 13810 ft | 348 kts | 306° |
| 2026-05-05 16:54 | 41.24662 | -85.82139 | 13155 ft | 342 kts | 303° |
| 2026-05-05 16:54 | 41.25964 | -85.84716 | 12503 ft | 331 kts | 292° |
| 2026-05-05 16:55 | 41.26833 | -85.87500 | 11880 ft | 322 kts | 283° |
| 2026-05-05 16:55 | 41.27280 | -85.90373 | 11440 ft | 313 kts | 273° |
| 2026-05-05 16:55 | 41.27499 | -85.93249 | 11193 ft | 312 kts | 272° |
| 2026-05-05 16:55 | 41.27724 | -85.96077 | 10979 ft | 311 kts | 273° |
| 2026-05-05 16:56 | 41.27961 | -85.98917 | 10723 ft | 307 kts | 274° |
| 2026-05-05 16:56 | 41.28196 | -86.01715 | 10478 ft | 300 kts | 273° |
| 2026-05-05 16:56 | 41.28428 | -86.04414 | 10236 ft | 288 kts | 274° |
| 2026-05-05 16:56 | 41.28708 | -86.07002 | 9995 ft | 278 kts | 276° |
| 2026-05-05 16:57 | 41.29012 | -86.09488 | 9864 ft | 267 kts | 276° |
| 2026-05-05 16:57 | 41.29314 | -86.11913 | 9737 ft | 264 kts | 276° |
| 2026-05-05 16:57 | 41.29612 | -86.14321 | 9607 ft | 264 kts | 276° |
| 2026-05-05 16:57 | 41.29908 | -86.16730 | 9473 ft | 264 kts | 276° |
| 2026-05-05 16:58 | 41.30196 | -86.19136 | 9346 ft | 263 kts | 274° |
| 2026-05-05 16:58 | 41.30477 | -86.21546 | 9215 ft | 264 kts | 274° |
| 2026-05-05 16:58 | 41.30757 | -86.23959 | 9084 ft | 264 kts | 274° |
| 2026-05-05 16:58 | 41.31039 | -86.26376 | 8950 ft | 264 kts | 274° |
| 2026-05-05 16:59 | 41.31321 | -86.28785 | 9009 ft | 264 kts | 274° |
| 2026-05-05 16:59 | 41.31595 | -86.31165 | 9016 ft | 264 kts | 274° |
| 2026-05-05 16:59 | 41.31873 | -86.33582 | 9023 ft | 264 kts | 274° |
| 2026-05-05 16:59 | 41.32154 | -86.36000 | 9029 ft | 264 kts | 274° |
| 2026-05-05 17:00 | 41.32437 | -86.38420 | 9030 ft | 265 kts | 274° |
| 2026-05-05 17:00 | 41.32718 | -86.40841 | 9026 ft | 264 kts | 274° |
| 2026-05-05 17:00 | 41.32998 | -86.43256 | 9036 ft | 264 kts | 274° |
| 2026-05-05 17:00 | 41.33276 | -86.45671 | 9038 ft | 264 kts | 274° |
| 2026-05-05 17:01 | 41.33554 | -86.48088 | 9037 ft | 264 kts | 274° |
| 2026-05-05 17:01 | 41.33830 | -86.50504 | 9040 ft | 264 kts | 274° |
| 2026-05-05 17:01 | 41.34166 | -86.52910 | 9043 ft | 266 kts | 279° |
| 2026-05-05 17:01 | 41.34726 | -86.55273 | 9042 ft | 269 kts | 285° |
| 2026-05-05 17:02 | 41.35501 | -86.57518 | 9050 ft | 272 kts | 292° |
| 2026-05-05 17:02 | 41.36365 | -86.59758 | 9043 ft | 271 kts | 291° |
| 2026-05-05 17:02 | 41.37223 | -86.61995 | 9042 ft | 271 kts | 291° |
| 2026-05-05 17:02 | 41.38085 | -86.64230 | 9045 ft | 272 kts | 293° |
| 2026-05-05 17:03 | 41.39107 | -86.66365 | 9041 ft | 276 kts | 300° |
| 2026-05-05 17:03 | 41.40358 | -86.68325 | 9045 ft | 280 kts | 308° |
| 2026-05-05 17:03 | 41.41831 | -86.70061 | 9045 ft | 285 kts | 315° |
| 2026-05-05 17:03 | 41.43499 | -86.71528 | 9038 ft | 290 kts | 323° |
| 2026-05-05 17:04 | 41.45315 | -86.72740 | 9042 ft | 292 kts | 327° |
| 2026-05-05 17:04 | 41.47144 | -86.73927 | 9038 ft | 292 kts | 327° |
| 2026-05-05 17:04 | 41.48950 | -86.75104 | 9028 ft | 293 kts | 326° |
| 2026-05-05 17:04 | 41.50775 | -86.76297 | 9023 ft | 291 kts | 326° |
| 2026-05-05 17:05 | 41.52619 | -86.77348 | 9038 ft | 288 kts | 332° |
| 2026-05-05 17:05 | 41.54554 | -86.78071 | 9025 ft | 291 kts | 340° |
| 2026-05-05 17:05 | 41.56582 | -86.78442 | 9026 ft | 297 kts | 348° |
| 2026-05-05 17:05 | 41.58643 | -86.78638 | 9026 ft | 297 kts | 348° |
| 2026-05-05 17:06 | 41.60703 | -86.78836 | 9025 ft | 297 kts | 348° |
| 2026-05-05 17:06 | 41.62766 | -86.79037 | 9025 ft | 297 kts | 348° |
| 2026-05-05 17:06 | 41.64838 | -86.79240 | 9035 ft | 297 kts | 348° |
| 2026-05-05 17:06 | 41.66876 | -86.79446 | 9034 ft | 296 kts | 347° |
| 2026-05-05 17:07 | 41.68932 | -86.79695 | 9036 ft | 296 kts | 346° |
| 2026-05-05 17:07 | 41.70982 | -86.79966 | 9034 ft | 296 kts | 346° |
| 2026-05-05 17:07 | 41.73032 | -86.80242 | 9034 ft | 296 kts | 346° |
| 2026-05-05 17:07 | 41.75080 | -86.80515 | 9039 ft | 295 kts | 346° |
| 2026-05-05 17:08 | 41.77121 | -86.80782 | 9035 ft | 294 kts | 346° |
| 2026-05-05 17:08 | 41.79150 | -86.81130 | 9035 ft | 292 kts | 343° |
| 2026-05-05 17:08 | 41.81154 | -86.81573 | 9035 ft | 291 kts | 341° |
| 2026-05-05 17:08 | 41.83145 | -86.82059 | 9036 ft | 290 kts | 340° |
| 2026-05-05 17:09 | 41.85031 | -86.82787 | 9040 ft | 284 kts | 331° |
| 2026-05-05 17:09 | 41.86824 | -86.83846 | 9039 ft | 279 kts | 324° |
| 2026-05-05 17:09 | 41.88473 | -86.85162 | 9039 ft | 273 kts | 317° |
| 2026-05-05 17:09 | 41.89963 | -86.86707 | 9039 ft | 270 kts | 312° |
| 2026-05-05 17:10 | 41.91404 | -86.88320 | 9037 ft | 270 kts | 312° |
| 2026-05-05 17:10 | 41.92848 | -86.89934 | 9040 ft | 270 kts | 312° |
| 2026-05-05 17:10 | 41.94292 | -86.91552 | 9040 ft | 270 kts | 312° |
| 2026-05-05 17:10 | 41.95732 | -86.93167 | 9038 ft | 269 kts | 312° |
| 2026-05-05 17:11 | 41.97146 | -86.94746 | 9054 ft | 268 kts | 312° |
| 2026-05-05 17:11 | 41.98582 | -86.96353 | 9049 ft | 269 kts | 312° |
| 2026-05-05 17:11 | 42.00007 | -86.97982 | 9047 ft | 267 kts | 309° |
| 2026-05-05 17:11 | 42.01158 | -86.99884 | 9042 ft | 259 kts | 295° |
| 2026-05-05 17:12 | 42.01802 | -87.02084 | 9052 ft | 250 kts | 276° |
| 2026-05-05 17:12 | 42.01778 | -87.04385 | 9052 ft | 246 kts | 259° |
| 2026-05-05 17:12 | 42.01516 | -87.06658 | 9051 ft | 246 kts | 259° |
| 2026-05-05 17:12 | 42.01245 | -87.08928 | 9051 ft | 246 kts | 259° |
| 2026-05-05 17:13 | 42.00972 | -87.11196 | 9045 ft | 246 kts | 259° |
| 2026-05-05 17:13 | 42.00699 | -87.13470 | 9042 ft | 246 kts | 259° |
| 2026-05-05 17:13 | 42.00426 | -87.15742 | 9041 ft | 246 kts | 259° |
| 2026-05-05 17:13 | 42.00153 | -87.18012 | 9040 ft | 246 kts | 259° |
| 2026-05-05 17:14 | 41.99878 | -87.20284 | 9045 ft | 246 kts | 259° |
| 2026-05-05 17:14 | 41.99606 | -87.22523 | 9045 ft | 246 kts | 259° |
| 2026-05-05 17:14 | 41.99330 | -87.24794 | 9042 ft | 246 kts | 259° |
| 2026-05-05 17:14 | 41.99054 | -87.27064 | 9033 ft | 246 kts | 259° |
| 2026-05-05 17:15 | 41.98777 | -87.29339 | 9036 ft | 246 kts | 259° |
| 2026-05-05 17:15 | 41.98677 | -87.31640 | 8975 ft | 248 kts | 268° |
| 2026-05-05 17:15 | 41.98690 | -87.33950 | 8844 ft | 244 kts | 268° |
| 2026-05-05 17:15 | 41.98706 | -87.36189 | 8714 ft | 235 kts | 268° |
| 2026-05-05 17:16 | 41.98719 | -87.38341 | 8582 ft | 226 kts | 268° |
| 2026-05-05 17:16 | 41.98729 | -87.40435 | 8327 ft | 223 kts | 268° |
| 2026-05-05 17:16 | 41.98738 | -87.42522 | 8007 ft | 223 kts | 268° |
| 2026-05-05 17:16 | 41.98746 | -87.44607 | 7678 ft | 223 kts | 269° |
| 2026-05-05 17:17 | 41.98753 | -87.46695 | 7327 ft | 225 kts | 269° |
| 2026-05-05 17:17 | 41.98754 | -87.48843 | 6744 ft | 236 kts | 269° |
| 2026-05-05 17:17 | 41.98756 | -87.51075 | 6335 ft | 240 kts | 270° |
| 2026-05-05 17:17 | 41.98763 | -87.53313 | 5981 ft | 239 kts | 270° |
| 2026-05-05 17:18 | 41.98770 | -87.55514 | 5653 ft | 238 kts | 270° |
| 2026-05-05 17:18 | 41.98777 | -87.57737 | 5320 ft | 237 kts | 271° |
| 2026-05-05 17:18 | 41.98784 | -87.59926 | 4993 ft | 229 kts | 271° |
| 2026-05-05 17:18 | 41.98789 | -87.62004 | 4694 ft | 216 kts | 271° |
| 2026-05-05 17:19 | 41.98794 | -87.63961 | 4395 ft | 202 kts | 271° |
| 2026-05-05 17:19 | 41.98798 | -87.65787 | 4134 ft | 190 kts | 271° |
| 2026-05-05 17:19 | 41.98802 | -87.67513 | 3880 ft | 178 kts | 271° |
| 2026-05-05 17:19 | 41.98805 | -87.69107 | 3642 ft | 165 kts | 271° |
| 2026-05-05 17:20 | 41.98809 | -87.70613 | 3415 ft | 159 kts | 271° |
| 2026-05-05 17:20 | 41.98811 | -87.72078 | 3191 ft | 155 kts | 272° |
| 2026-05-05 17:20 | 41.98814 | -87.73519 | 2981 ft | 155 kts | 271° |
| 2026-05-05 17:20 | 41.98817 | -87.74971 | 2776 ft | 155 kts | 271° |
| 2026-05-05 17:21 | 41.98819 | -87.76411 | 2554 ft | 150 kts | 272° |
| 2026-05-05 17:21 | 41.98820 | -87.77777 | 2365 ft | 143 kts | 271° |
| 2026-05-05 17:21 | 41.98822 | -87.79091 | 2169 ft | 142 kts | 272° |
| 2026-05-05 17:22 | 41.98825 | -87.81707 | 1786 ft | 136 kts | 273° |
| 2026-05-05 17:22 | 41.98826 | -87.82977 | 1604 ft | 137 kts | 272° |
| 2026-05-05 17:22 | 41.98829 | -87.85476 | 1239 ft | 137 kts | 272° |
| 2026-05-05 17:23 | 41.98823 | -87.86744 | 1084 ft | 133 kts | 272° |
| 2026-05-05 17:23 | 41.98825 | -87.87970 | 908 ft | 131 kts | 274° |
| 2026-05-05 17:23 | 41.98828 | -87.89127 | 720 ft | 119 kts | 272° |
| 2026-05-05 17:23 | 41.98830 | -87.90135 | 670 ft | 98 kts | 269° |
| 2026-05-05 17:24 | 41.98836 | -87.90978 | 670 ft | 73 kts | 270° |
| 2026-05-05 17:24 | 41.98805 | -87.91485 | 668 ft | 37 kts | 244° |
| 2026-05-05 17:24 | 41.98721 | -87.91630 | 668 ft | 18 kts | 236° |
| 2026-05-05 17:24 | 41.98676 | -87.91778 | 669 ft | 10 kts | 259° |
| 2026-05-05 17:25 | 41.98674 | -87.91799 | 669 ft | 3 kts | 261° |
| 2026-05-05 17:25 | 41.98673 | -87.91806 | 669 ft | 0 kts | 256° |
| 2026-05-05 17:25 | 41.98665 | -87.91814 | 667 ft | 3 kts | 214° |
| 2026-05-05 17:25 | 41.98600 | -87.91820 | 669 ft | 17 kts | 180° |
| 2026-05-05 17:26 | 41.98451 | -87.91819 | 669 ft | 20 kts | 180° |
| 2026-05-05 17:26 | 41.98350 | -87.91818 | 670 ft | 12 kts | 176° |
| 2026-05-05 17:26 | 41.98271 | -87.91793 | 670 ft | 11 kts | 133° |
| 2026-05-05 17:26 | 41.98275 | -87.91683 | 670 ft | 13 kts | 84° |
| 2026-05-05 17:27 | 41.98286 | -87.91553 | 670 ft | 15 kts | 87° |
| 2026-05-05 17:27 | 41.98289 | -87.91403 | 671 ft | 17 kts | 90° |
| 2026-05-05 17:27 | 41.98288 | -87.91242 | 671 ft | 18 kts | 90° |
| 2026-05-05 17:27 | 41.98287 | -87.91050 | 669 ft | 23 kts | 90° |
| 2026-05-05 17:28 | 41.98287 | -87.90827 | 669 ft | 26 kts | 90° |
| 2026-05-05 17:28 | 41.98288 | -87.90561 | 668 ft | 30 kts | 90° |
| 2026-05-05 17:28 | 41.98287 | -87.90258 | 669 ft | 35 kts | 90° |
| 2026-05-05 17:28 | 41.98288 | -87.89905 | 670 ft | 40 kts | 90° |
| 2026-05-05 17:29 | 41.98291 | -87.89586 | 670 ft | 11 kts | 88° |
| 2026-05-05 17:29 | 41.98232 | -87.89500 | 669 ft | 15 kts | 138° |
| 2026-05-05 17:29 | 41.98145 | -87.89387 | 669 ft | 20 kts | 135° |
| 2026-05-05 17:29 | 41.98033 | -87.89376 | 669 ft | 21 kts | 228° |
| 2026-05-05 17:30 | 41.97905 | -87.89523 | 669 ft | 29 kts | 190° |
| 2026-05-05 17:30 | 41.97696 | -87.89526 | 669 ft | 32 kts | 181° |
| 2026-05-05 17:30 | 41.97553 | -87.89602 | 669 ft | 16 kts | 273° |
| 2026-05-05 17:30 | 41.97598 | -87.89734 | 669 ft | 8 kts | 306° |
| 2026-05-05 17:31 | 41.97625 | -87.89734 | 669 ft | 4 kts | 7° |
| 2026-05-05 17:31 | 41.97641 | -87.89729 | 669 ft | 4 kts | 18° |
| 2026-05-05 17:31 | 41.97649 | -87.89727 | 668 ft | 1 kts | 7° |
| 2026-05-05 17:31 | 41.97650 | -87.89727 | 668 ft | 0 kts | 7° |